createdAt,value
2018-04-07T00:00:08.170Z,3.60
2018-04-07T00:02:35.840Z,3.50
2018-04-07T00:05:03.554Z,3.60
2018-04-07T00:07:31.230Z,3.60
2018-04-07T00:09:58.884Z,3.50
2018-04-07T00:12:26.544Z,3.50
2018-04-07T00:14:54.134Z,3.50
2018-04-07T00:17:21.853Z,3.40
2018-04-07T00:19:49.456Z,3.40
2018-04-07T00:22:17.114Z,3.40
2018-04-07T00:24:44.672Z,3.30
2018-04-07T00:27:12.248Z,3.30
2018-04-07T00:29:40.720Z,3.20
2018-04-07T00:32:08.306Z,3.20
2018-04-07T00:34:35.970Z,3.20
2018-04-07T00:37:03.834Z,3.20
2018-04-07T00:39:31.529Z,3.20
2018-04-07T00:41:59.950Z,3.10
2018-04-07T00:44:27.634Z,3.10
2018-04-07T00:46:55.267Z,3.10
2018-04-07T00:49:22.950Z,3.00
2018-04-07T00:51:50.531Z,3.00
2018-04-07T00:54:18.172Z,3.00
2018-04-07T00:56:45.750Z,2.90
2018-04-07T00:59:13.392Z,2.90
2018-04-07T01:01:40.982Z,2.90
2018-04-07T01:04:09.495Z,2.80
2018-04-07T01:06:37.054Z,2.80
2018-04-07T01:09:04.691Z,2.80
2018-04-07T01:11:32.330Z,2.80
2018-04-07T01:13:59.956Z,2.80
2018-04-07T01:16:27.515Z,2.70
2018-04-07T01:18:55.141Z,2.70
2018-04-07T01:21:22.742Z,2.70
2018-04-07T01:23:50.337Z,2.70
2018-04-07T01:26:18.026Z,2.70
2018-04-07T01:28:46.365Z,2.70
2018-04-07T01:31:14.015Z,2.60
2018-04-07T01:33:41.575Z,2.70
2018-04-07T01:36:09.260Z,2.70
2018-04-07T01:38:37.204Z,2.70
2018-04-07T01:41:04.860Z,2.60
2018-04-07T01:43:32.474Z,2.60
2018-04-07T01:46:00.226Z,2.50
2018-04-07T01:48:27.860Z,2.50
2018-04-07T01:50:56.286Z,2.50
2018-04-07T01:53:24.649Z,2.50
2018-04-07T01:55:52.292Z,2.50
2018-04-07T01:58:19.901Z,2.50
2018-04-07T02:00:47.582Z,2.50
2018-04-07T02:03:15.191Z,2.50
2018-04-07T02:05:42.871Z,2.50
2018-04-07T02:08:11.328Z,2.40
2018-04-07T02:10:38.949Z,2.30
2018-04-07T02:13:06.588Z,2.40
2018-04-07T02:15:34.307Z,2.40
2018-04-07T02:18:01.988Z,2.40
2018-04-07T02:20:30.375Z,2.30
2018-04-07T02:22:58.064Z,2.30
2018-04-07T02:25:25.763Z,2.30
2018-04-07T02:27:53.414Z,2.30
2018-04-07T02:30:21.079Z,2.30
2018-04-07T02:32:48.754Z,2.30
2018-04-07T02:35:16.364Z,2.20
2018-04-07T02:37:44.010Z,2.20
2018-04-07T02:40:11.628Z,2.20
2018-04-07T02:42:39.352Z,2.20
2018-04-07T02:45:06.863Z,2.20
2018-04-07T02:47:34.497Z,2.10
2018-04-07T02:50:02.106Z,2.10
2018-04-07T02:52:29.763Z,2.10
2018-04-07T02:54:57.375Z,2.10
2018-04-07T02:57:25.021Z,2.00
2018-04-07T02:59:52.646Z,2.00
2018-04-07T03:02:20.300Z,1.90
2018-04-07T03:04:47.845Z,1.90
2018-04-07T03:07:15.501Z,1.90
2018-04-07T03:09:43.118Z,1.90
2018-04-07T03:12:10.663Z,1.90
2018-04-07T03:14:38.326Z,1.90
2018-04-07T03:17:06.653Z,1.80
2018-04-07T03:19:34.360Z,1.80
2018-04-07T03:22:02.028Z,1.80
2018-04-07T03:24:30.471Z,1.80
2018-04-07T03:26:58.089Z,1.70
2018-04-07T03:29:25.729Z,1.80
2018-04-07T03:31:53.529Z,1.80
2018-04-07T03:34:21.168Z,1.80
2018-04-07T03:36:48.721Z,1.80
2018-04-07T03:39:16.351Z,1.80
2018-04-07T03:41:43.941Z,1.80
2018-04-07T03:44:12.434Z,1.80
2018-04-07T03:46:40.082Z,1.80
2018-04-07T03:49:08.447Z,1.80
2018-04-07T03:51:36.068Z,1.80
2018-04-07T03:54:03.671Z,1.90
2018-04-07T03:56:31.414Z,1.90
2018-04-07T03:58:59.836Z,1.90
2018-04-07T04:01:27.559Z,1.90
2018-04-07T04:03:55.216Z,1.90
2018-04-07T04:06:22.866Z,1.90
2018-04-07T04:08:50.558Z,1.90
2018-04-07T04:11:18.260Z,1.90
2018-04-07T04:13:45.876Z,1.90
2018-04-07T04:16:14.214Z,2.00
2018-04-07T04:18:41.869Z,2.00
2018-04-07T04:21:09.557Z,2.00
2018-04-07T04:23:37.158Z,2.10
2018-04-07T04:26:04.797Z,2.10
2018-04-07T04:28:32.475Z,2.20
2018-04-07T04:31:00.200Z,2.20
2018-04-07T04:33:27.819Z,2.30
2018-04-07T04:35:56.050Z,2.30
2018-04-07T04:38:23.736Z,2.30
2018-04-07T04:40:51.365Z,2.30
2018-04-07T04:43:19.031Z,2.40
2018-04-07T04:45:46.622Z,2.40
2018-04-07T04:48:14.366Z,2.50
2018-04-07T04:50:42.026Z,2.50
2018-04-07T04:53:09.759Z,2.60
2018-04-07T04:55:37.443Z,2.60
2018-04-07T04:58:05.138Z,2.60
2018-04-07T05:00:32.822Z,2.70
2018-04-07T05:03:01.270Z,2.80
2018-04-07T05:05:29.012Z,2.70
2018-04-07T05:07:58.531Z,2.80
2018-04-07T05:10:27.248Z,2.90
2018-04-07T05:12:54.956Z,2.90
2018-04-07T05:15:23.439Z,2.90
2018-04-07T05:17:52.832Z,3.00
2018-04-07T05:20:22.040Z,3.00
2018-04-07T05:22:49.845Z,3.20
2018-04-07T05:25:17.730Z,3.20
2018-04-07T05:27:45.663Z,3.30
2018-04-07T05:30:13.461Z,3.30
2018-04-07T05:32:41.463Z,3.40
2018-04-07T05:35:09.870Z,3.40
2018-04-07T05:37:38.911Z,3.60
2018-04-07T05:40:07.798Z,3.60
2018-04-07T05:42:36.190Z,3.60
2018-04-07T05:45:03.907Z,3.70
2018-04-07T05:47:31.916Z,3.80
2018-04-07T05:49:59.528Z,3.90
2018-04-07T05:52:27.179Z,3.90
2018-04-07T05:54:54.829Z,4.00
2018-04-07T05:57:23.228Z,4.10
2018-04-07T05:59:50.894Z,4.10
2018-04-07T06:02:18.634Z,4.20
2018-04-07T06:04:46.219Z,4.20
2018-04-07T06:07:13.861Z,4.30
2018-04-07T06:09:41.515Z,4.40
2018-04-07T06:12:09.112Z,4.60
2018-04-07T06:14:36.802Z,4.70
2018-04-07T06:17:04.483Z,4.90
2018-04-07T06:19:32.099Z,5.00
2018-04-07T06:21:59.791Z,5.10
2018-04-07T06:24:27.540Z,5.30
2018-04-07T06:26:55.141Z,5.40
2018-04-07T06:29:23.549Z,5.70
2018-04-07T06:31:51.174Z,5.70
2018-04-07T06:34:18.858Z,5.90
2018-04-07T06:36:46.507Z,6.10
2018-04-07T06:39:14.095Z,6.40
2018-04-07T06:41:41.681Z,6.50
2018-04-07T06:44:09.317Z,6.60
2018-04-07T06:46:37.016Z,6.80
2018-04-07T06:49:04.633Z,6.90
2018-04-07T06:51:32.561Z,7.00
2018-04-07T06:54:00.187Z,7.20
2018-04-07T06:56:27.823Z,7.40
2018-04-07T06:58:56.247Z,7.70
2018-04-07T07:01:23.972Z,7.70
2018-04-07T07:03:51.659Z,8.00
2018-04-07T07:06:19.293Z,8.20
2018-04-07T07:08:46.950Z,8.50
2018-04-07T07:11:15.157Z,8.70
2018-04-07T07:13:42.809Z,8.90
2018-04-07T07:16:10.523Z,9.10
2018-04-07T07:18:38.211Z,9.40
2018-04-07T07:21:05.891Z,9.50
2018-04-07T07:23:33.479Z,9.60
2018-04-07T07:26:01.129Z,9.70
2018-04-07T07:28:28.761Z,9.80
2018-04-07T07:30:56.437Z,9.80
2018-04-07T07:33:24.254Z,10.00
2018-04-07T07:35:52.646Z,10.30
2018-04-07T07:38:21.078Z,10.40
2018-04-07T07:40:48.717Z,10.40
2018-04-07T07:43:16.506Z,10.60
2018-04-07T07:45:44.183Z,10.80
2018-04-07T07:48:11.921Z,11.00
2018-04-07T07:50:39.545Z,11.10
2018-04-07T07:53:07.240Z,11.20
2018-04-07T07:55:34.834Z,11.30
2018-04-07T07:58:03.238Z,11.60
2018-04-07T08:00:30.867Z,11.60
2018-04-07T08:02:58.579Z,11.80
2018-04-07T08:05:26.237Z,11.80
2018-04-07T08:07:53.823Z,12.00
2018-04-07T08:10:21.480Z,12.10
2018-04-07T08:12:49.136Z,12.30
2018-04-07T08:15:16.794Z,12.40
2018-04-07T08:17:44.491Z,12.60
2018-04-07T08:20:12.124Z,12.70
2018-04-07T08:22:39.741Z,12.90
2018-04-07T08:25:07.431Z,13.10
2018-04-07T08:27:35.794Z,13.30
2018-04-07T08:30:03.490Z,13.20
2018-04-07T08:32:31.141Z,13.40
2018-04-07T08:34:58.883Z,13.60
2018-04-07T08:37:26.538Z,13.70
2018-04-07T08:39:54.236Z,13.80
2018-04-07T08:42:22.312Z,13.80
2018-04-07T08:44:50.027Z,13.90
2018-04-07T08:47:17.775Z,14.00
2018-04-07T08:49:45.504Z,14.10
2018-04-07T08:52:13.327Z,14.20
2018-04-07T08:54:40.996Z,14.30
2018-04-07T08:57:08.677Z,14.40
2018-04-07T08:59:38.397Z,14.60
2018-04-07T09:02:06.094Z,14.60
2018-04-07T09:04:33.745Z,14.70
2018-04-07T09:07:01.424Z,14.80
2018-04-07T09:09:29.812Z,15.20
2018-04-07T09:11:57.617Z,15.10
2018-04-07T09:14:25.266Z,15.20
2018-04-07T09:16:53.750Z,15.40
2018-04-07T09:19:21.333Z,15.40
2018-04-07T09:21:48.983Z,15.50
2018-04-07T09:24:16.621Z,15.60
2018-04-07T09:26:45.025Z,15.70
2018-04-07T09:29:12.615Z,15.60
2018-04-07T09:31:40.236Z,15.70
2018-04-07T09:34:07.846Z,15.80
2018-04-07T09:36:35.475Z,15.90
2018-04-07T09:39:03.160Z,15.90
2018-04-07T09:41:30.923Z,15.90
2018-04-07T09:43:58.512Z,15.90
2018-04-07T09:46:26.173Z,16.00
2018-04-07T09:48:54.605Z,16.30
2018-04-07T09:51:22.203Z,16.20
2018-04-07T09:53:49.939Z,16.50
2018-04-07T09:56:18.434Z,16.70
2018-04-07T09:58:46.152Z,16.60
2018-04-07T10:01:14.538Z,16.70
2018-04-07T10:03:42.283Z,16.70
2018-04-07T10:06:09.992Z,16.80
2018-04-07T10:08:38.454Z,16.80
2018-04-07T10:11:07.064Z,17.20
2018-04-07T10:13:34.762Z,17.10
2018-04-07T10:16:02.517Z,17.30
2018-04-07T10:18:31.340Z,17.40
2018-04-07T10:21:00.184Z,17.50
2018-04-07T10:23:27.987Z,17.50
2018-04-07T10:25:55.686Z,17.60
2018-04-07T10:28:23.341Z,17.70
2018-04-07T10:30:51.072Z,17.80
2018-04-07T10:33:18.721Z,17.90
2018-04-07T10:35:46.373Z,18.00
2018-04-07T10:38:14.055Z,18.10
2018-04-07T10:40:42.493Z,18.20
2018-04-07T10:43:10.120Z,18.10
2018-04-07T10:45:37.762Z,18.30
2018-04-07T10:48:05.918Z,18.50
2018-04-07T10:50:33.589Z,18.70
2018-04-07T10:53:01.213Z,18.70
2018-04-07T10:55:29.746Z,19.00
2018-04-07T10:57:58.216Z,19.10
2018-04-07T11:00:25.948Z,19.10
2018-04-07T11:02:53.681Z,19.10
2018-04-07T11:05:22.457Z,19.20
2018-04-07T11:07:50.095Z,19.30
2018-04-07T11:10:17.923Z,19.30
2018-04-07T11:12:45.595Z,19.20
2018-04-07T11:15:13.416Z,19.30
2018-04-07T11:17:41.125Z,19.40
2018-04-07T11:20:08.934Z,19.40
2018-04-07T11:22:36.643Z,19.40
2018-04-07T11:25:04.451Z,19.50
2018-04-07T11:27:32.308Z,19.60
2018-04-07T11:30:00.068Z,19.50
2018-04-07T11:32:27.706Z,19.60
2018-04-07T11:34:55.537Z,19.40
2018-04-07T11:37:23.238Z,19.50
2018-04-07T11:39:50.962Z,19.40
2018-04-07T11:42:19.506Z,19.60
2018-04-07T11:44:47.252Z,19.50
2018-04-07T11:47:15.481Z,19.60
2018-04-07T11:49:43.453Z,19.50
2018-04-07T11:52:11.370Z,19.40
2018-04-07T11:54:40.042Z,19.40
2018-04-07T11:57:07.885Z,19.30
2018-04-07T11:59:37.601Z,19.70
2018-04-07T12:02:06.755Z,19.80
2018-04-07T12:04:36.943Z,19.80
2018-04-07T12:07:05.105Z,19.70
2018-04-07T12:09:33.172Z,19.50
2018-04-07T12:12:01.062Z,19.60
2018-04-07T12:14:29.107Z,19.60
2018-04-07T12:16:58.219Z,19.60
2018-04-07T12:19:27.047Z,19.80
2018-04-07T12:21:55.708Z,19.90
2018-04-07T12:24:23.662Z,19.80
2018-04-07T12:26:51.458Z,19.80
2018-04-07T12:29:19.192Z,19.80
2018-04-07T12:31:48.851Z,19.80
2018-04-07T12:34:17.620Z,19.70
2018-04-07T12:36:51.063Z,19.50
2018-04-07T12:39:21.980Z,19.40
2018-04-07T12:41:49.696Z,19.60
2018-04-07T12:44:18.224Z,19.60
2018-04-07T12:46:46.167Z,19.60
2018-04-07T12:49:14.442Z,19.70
2018-04-07T12:51:42.380Z,19.70
2018-04-07T12:54:12.381Z,19.60
2018-04-07T12:56:40.484Z,19.70
2018-04-07T12:59:08.670Z,19.70
2018-04-07T13:01:36.446Z,19.80
2018-04-07T13:04:04.159Z,19.70
2018-04-07T13:06:32.250Z,19.90
2018-04-07T13:09:01.191Z,20.00
2018-04-07T13:11:29.850Z,20.10
2018-04-07T13:13:59.320Z,20.00
2018-04-07T13:16:27.302Z,20.00
2018-04-07T13:18:56.628Z,20.10
2018-04-07T13:21:25.289Z,20.10
2018-04-07T13:23:54.329Z,20.00
2018-04-07T13:26:22.125Z,19.90
2018-04-07T13:28:50.464Z,19.70
2018-04-07T13:31:19.187Z,19.40
2018-04-07T13:33:46.984Z,19.40
2018-04-07T13:36:15.267Z,19.30
2018-04-07T13:38:42.972Z,19.30
2018-04-07T13:41:14.075Z,19.30
2018-04-07T13:43:42.085Z,19.20
2018-04-07T13:46:14.975Z,19.10
2018-04-07T13:48:46.744Z,19.00
2018-04-07T13:51:14.780Z,18.90
2018-04-07T13:53:44.058Z,18.80
2018-04-07T13:56:15.992Z,18.30
2018-04-07T13:58:44.138Z,18.20
2018-04-07T14:01:22.307Z,18.10
2018-04-07T14:03:53.388Z,18.10
2018-04-07T14:06:24.264Z,18.10
2018-04-07T14:08:56.052Z,18.00
2018-04-07T14:11:28.066Z,17.80
2018-04-07T14:13:58.913Z,17.70
2018-04-07T14:16:28.072Z,17.40
2018-04-07T14:18:58.441Z,17.50
2018-04-07T14:21:34.166Z,17.40
2018-04-07T14:24:03.852Z,17.30
2018-04-07T14:26:31.963Z,17.20
2018-04-07T14:29:00.004Z,17.20
2018-04-07T14:31:27.837Z,17.10
2018-04-07T14:33:56.779Z,17.10
2018-04-07T14:36:25.074Z,17.00
2018-04-07T14:38:52.817Z,17.00
2018-04-07T14:41:20.682Z,17.00
2018-04-07T14:43:48.490Z,16.80
2018-04-07T14:46:17.094Z,16.60
2018-04-07T14:48:45.611Z,16.50
2018-04-07T14:51:14.198Z,16.50
2018-04-07T14:53:44.371Z,16.40
2018-04-07T14:56:12.311Z,16.30
2018-04-07T14:58:40.266Z,16.40
2018-04-07T15:01:08.756Z,16.40
2018-04-07T15:03:36.789Z,16.30
2018-04-07T15:06:06.024Z,16.10
2018-04-07T15:08:34.664Z,16.00
2018-04-07T15:11:02.343Z,16.00
2018-04-07T15:13:31.811Z,16.00
2018-04-07T15:15:59.663Z,15.90
2018-04-07T15:18:27.424Z,15.80
2018-04-07T15:20:57.346Z,15.80
2018-04-07T15:23:25.742Z,15.70
2018-04-07T15:25:53.536Z,15.70
2018-04-07T15:28:22.401Z,15.60
2018-04-07T15:30:50.906Z,15.50
2018-04-07T15:33:18.778Z,15.50
2018-04-07T15:35:47.302Z,15.40
2018-04-07T15:38:15.179Z,15.30
2018-04-07T15:40:42.931Z,15.30
2018-04-07T15:43:11.400Z,15.10
2018-04-07T15:45:39.192Z,15.10
2018-04-07T15:48:07.170Z,15.00
2018-04-07T15:50:35.814Z,15.00
2018-04-07T15:53:04.256Z,14.80
2018-04-07T15:55:32.147Z,14.80
2018-04-07T15:58:00.011Z,14.80
2018-04-07T16:00:27.896Z,14.60
2018-04-07T16:02:55.534Z,14.50
2018-04-07T16:05:23.524Z,14.50
2018-04-07T16:07:51.533Z,14.50
2018-04-07T16:10:21.288Z,14.60
2018-04-07T16:12:50.198Z,14.60
2018-04-07T16:15:18.866Z,14.60
2018-04-07T16:17:46.775Z,14.60
2018-04-07T16:20:15.840Z,14.50
2018-04-07T16:22:44.469Z,14.60
2018-04-07T16:25:12.399Z,14.50
2018-04-07T16:27:40.458Z,14.40
2018-04-07T16:30:08.560Z,14.30
2018-04-07T16:32:36.670Z,14.20
2018-04-07T16:35:05.550Z,14.10
2018-04-07T16:37:34.536Z,14.00
2018-04-07T16:40:02.544Z,14.00
2018-04-07T16:42:30.781Z,13.90
2018-04-07T16:44:58.890Z,13.90
2018-04-07T16:47:26.957Z,13.80
2018-04-07T16:49:55.436Z,13.70
2018-04-07T16:52:23.903Z,13.70
2018-04-07T16:54:52.220Z,13.60
2018-04-07T16:57:20.299Z,13.50
2018-04-07T16:59:48.240Z,13.50
2018-04-07T17:02:16.070Z,13.40
2018-04-07T17:04:44.574Z,13.30
2018-04-07T17:07:14.534Z,13.10
2018-04-07T17:09:43.551Z,13.10
2018-04-07T17:12:11.367Z,13.10
2018-04-07T17:14:39.260Z,13.00
2018-04-07T17:17:11.566Z,12.90
2018-04-07T17:19:40.600Z,12.90
2018-04-07T17:22:11.299Z,12.80
2018-04-07T17:24:40.399Z,12.60
2018-04-07T17:27:08.294Z,12.60
2018-04-07T17:29:36.180Z,12.60
2018-04-07T17:32:05.234Z,12.50
2018-04-07T17:34:35.068Z,12.40
2018-04-07T17:37:03.530Z,12.40
2018-04-07T17:39:31.356Z,12.40
2018-04-07T17:41:59.996Z,12.30
2018-04-07T17:44:27.954Z,12.20
2018-04-07T17:46:56.696Z,12.20
2018-04-07T17:49:25.218Z,12.10
2018-04-07T17:51:56.758Z,12.00
2018-04-07T17:54:24.560Z,12.00
2018-04-07T17:56:52.344Z,11.90
2018-04-07T17:59:21.074Z,11.80
2018-04-07T18:01:51.615Z,11.80
2018-04-07T18:04:19.448Z,11.70
2018-04-07T18:06:50.110Z,11.60
2018-04-07T18:09:18.315Z,11.60
2018-04-07T18:11:47.976Z,11.50
2018-04-07T18:14:16.382Z,11.40
2018-04-07T18:16:45.170Z,11.40
2018-04-07T18:19:13.513Z,11.40
2018-04-07T18:21:42.999Z,11.30
2018-04-07T18:24:10.748Z,11.20
2018-04-07T18:26:39.704Z,11.20
2018-04-07T18:29:07.538Z,11.20
2018-04-07T18:31:35.530Z,11.20
2018-04-07T18:34:03.201Z,11.10
2018-04-07T18:36:31.056Z,11.10
2018-04-07T18:38:59.395Z,11.10
2018-04-07T18:41:27.939Z,11.00
2018-04-07T18:43:56.832Z,10.90
2018-04-07T18:46:28.555Z,10.80
2018-04-07T18:48:57.188Z,10.90
2018-04-07T18:51:26.264Z,10.80
2018-04-07T18:53:55.737Z,10.80
2018-04-07T18:56:24.196Z,10.80
2018-04-07T18:58:53.083Z,10.80
2018-04-07T19:01:21.014Z,10.80
2018-04-07T19:03:48.860Z,10.70
2018-04-07T19:06:16.779Z,10.70
2018-04-07T19:08:45.446Z,10.60
2018-04-07T19:11:14.105Z,10.50
2018-04-07T19:13:42.278Z,10.40
2018-04-07T19:16:09.914Z,10.50
2018-04-07T19:18:37.642Z,10.50
2018-04-07T19:21:05.249Z,10.50
2018-04-07T19:23:33.013Z,10.50
2018-04-07T19:26:00.636Z,10.40
2018-04-07T19:28:29.061Z,10.40
2018-04-07T19:30:56.697Z,10.30
2018-04-07T19:33:24.333Z,10.30
2018-04-07T19:35:52.050Z,10.30
2018-04-07T19:38:20.021Z,10.30
2018-04-07T19:40:47.666Z,10.30
2018-04-07T19:43:15.659Z,10.20
2018-04-07T19:45:43.463Z,10.20
2018-04-07T19:48:12.147Z,10.10
2018-04-07T19:50:40.018Z,10.00
2018-04-07T19:53:09.810Z,10.00
2018-04-07T19:55:37.744Z,9.90
2018-04-07T19:58:07.864Z,10.00
2018-04-07T20:00:37.890Z,9.90
2018-04-07T20:03:05.889Z,9.90
2018-04-07T20:05:35.186Z,9.90
2018-04-07T20:08:03.834Z,9.80
2018-04-07T20:10:34.884Z,9.80
2018-04-07T20:13:05.716Z,9.80
2018-04-07T20:15:33.868Z,9.70
2018-04-07T20:18:04.077Z,9.70
2018-04-07T20:20:32.609Z,9.70
2018-04-07T20:23:03.502Z,9.70
2018-04-07T20:25:32.449Z,9.70
2018-04-07T20:28:01.334Z,9.70
2018-04-07T20:30:30.255Z,9.70
2018-04-07T20:32:58.050Z,9.60
2018-04-07T20:35:25.998Z,9.70
2018-04-07T20:37:54.461Z,9.60
2018-04-07T20:40:23.955Z,9.60
2018-04-07T20:42:51.920Z,9.50
2018-04-07T20:45:19.720Z,9.60
2018-04-07T20:47:47.611Z,9.50
2018-04-07T20:50:17.165Z,9.50
2018-04-07T20:52:46.037Z,9.40
2018-04-07T20:55:16.967Z,9.40
2018-04-07T20:57:44.501Z,9.40
2018-04-07T21:00:12.195Z,9.40
2018-04-07T21:02:40.119Z,9.30
2018-04-07T21:05:10.543Z,9.30
2018-04-07T21:07:38.968Z,9.20
2018-04-07T21:10:07.767Z,9.20
2018-04-07T21:12:35.596Z,9.20
2018-04-07T21:15:03.242Z,9.20
2018-04-07T21:17:30.891Z,9.20
2018-04-07T21:20:01.296Z,9.10
2018-04-07T21:22:28.972Z,9.20
2018-04-07T21:24:56.902Z,9.10
2018-04-07T21:27:24.963Z,9.20
2018-04-07T21:29:52.805Z,9.10
2018-04-07T21:32:20.644Z,9.20
2018-04-07T21:34:49.630Z,9.20
2018-04-07T21:37:17.358Z,9.10
2018-04-07T21:39:45.065Z,9.10
2018-04-07T21:42:13.594Z,9.10
2018-04-07T21:44:41.279Z,9.10
2018-04-07T21:47:08.967Z,9.10
2018-04-07T21:49:37.544Z,9.10
2018-04-07T21:52:05.325Z,9.00
2018-04-07T21:54:33.548Z,9.00
2018-04-07T21:57:01.391Z,9.00
2018-04-07T21:59:29.115Z,9.00
2018-04-07T22:01:56.735Z,9.10
2018-04-07T22:04:24.720Z,9.10
2018-04-07T22:06:52.520Z,9.10
2018-04-07T22:09:20.464Z,9.10
2018-04-07T22:11:49.563Z,9.00
2018-04-07T22:14:17.399Z,9.00
2018-04-07T22:16:47.133Z,9.00
2018-04-07T22:19:16.800Z,9.00
2018-04-07T22:21:46.211Z,9.00
2018-04-07T22:24:15.788Z,9.00
2018-04-07T22:26:43.442Z,8.90
2018-04-07T22:29:11.080Z,9.00
2018-04-07T22:31:41.144Z,8.90
2018-04-07T22:34:08.978Z,8.90
2018-04-07T22:36:36.981Z,8.90
2018-04-07T22:39:04.696Z,8.80
2018-04-07T22:41:32.434Z,8.80
2018-04-07T22:44:00.117Z,8.80
2018-04-07T22:46:27.711Z,8.80
2018-04-07T22:48:55.315Z,8.80
2018-04-07T22:51:23.974Z,8.70
2018-04-07T22:53:52.604Z,8.70
2018-04-07T22:56:20.396Z,8.60
2018-04-07T22:58:48.112Z,8.60
2018-04-07T23:01:15.814Z,8.60
2018-04-07T23:03:43.438Z,8.60
2018-04-07T23:06:11.788Z,8.60
2018-04-07T23:08:41.026Z,8.60
2018-04-07T23:11:10.602Z,8.60
2018-04-07T23:13:38.346Z,8.60
2018-04-07T23:16:07.577Z,8.60
2018-04-07T23:18:37.069Z,8.70
2018-04-07T23:21:04.794Z,8.70
2018-04-07T23:23:33.838Z,8.80
2018-04-07T23:26:02.242Z,8.80
2018-04-07T23:28:30.836Z,8.80
2018-04-07T23:30:58.701Z,8.80
2018-04-07T23:33:26.911Z,8.90
2018-04-07T23:35:56.472Z,8.90
2018-04-07T23:38:24.224Z,8.90
2018-04-07T23:40:51.995Z,9.00
2018-04-07T23:43:19.839Z,9.00
2018-04-07T23:45:47.844Z,9.00
2018-04-07T23:48:15.696Z,9.00
2018-04-07T23:50:44.520Z,9.00
2018-04-07T23:53:12.377Z,9.10
2018-04-07T23:55:40.276Z,9.10
2018-04-07T23:58:09.434Z,9.10
